Huvudsida
METAR-TAF:

METAR-TAF

Flygplatser :

Stokmarknes, Norge

Stokmarknes flygplats. Skagen

latitud: 68-35N, longitud: 015-01E, höjd: 0 m

Aktuellt väderrapport

Denna rapport gjordes för 1 timme och 14 minuter sedan, klockan 09:50 UTC
Vind 19 kt från sydost
Temperatur 1°C
Fuktighet 55%
Tryck 994 hPa
Sikt 10 km eller mer
Inga moln under 1 500 m eller inga cumulonimbus

METAR: ENSK 170950Z 13019KT CAVOK 01/M07 Q0994

Tid: 12:04 (11:04 UTC)


TAF: saknas

Aktuella väderrapporter och prognoser från 4000 flygplatser (METAR- och TAF-rapporter).

De tillgängliga stationerna syns som gula och röda prickar på kartan.

För musen över prickarna för att se namnen på stationerna.

Klicka sedan för att få väderrapporter och prognoser.

För att ändra kartan: Klicka på de gröna knapparna med ett svart kors på för att zooma in; den gröna knappen med ett streck på för att zooma ut; eller på de gröna pilarna för angränsande kartor.


METAR-TAF: